Aeroporto :
LOGIN :

Iscrizione | Disclaimer

   EN    FR    IT 

 










Sommario :    VFR   VFR Marginale   IFR   IFR Intensivo   IFR Molto Intensivo
Visibilità : 
Base nubi : 
>= 8 km
>= 3000ft
5 / 8 km
1000 / 3000 ft
1500m / 5 km
500 / 1000 ft
800 / 1500m
200 / 500 ft
< 800m
< 200 ft
Simboli :   Temporali  Nebbia  Neve Forte  Precipitazioni Forti  Vento > 20 kt
SIGMETs :   Varie  Temporali  Ghiacco  Turbolenza  Onda orograficha  Ceneri Vulcaniche







- Altitudine del aeroporto : 12 ft
- Codice IATA : BCN


LEBL - Barcelone

ULTIMO METAR :
  • 201830Z 04010KT 9999 FEW025 22/17 Q1013 NOSIG

METARs OBSOLETI :
  • 201800Z 05010KT 030V090 9999 FEW025 22/17 Q1013 NOSIG
  • 201730Z 10006KT 040V140 9999 FEW025 22/17 Q1013 NOSIG
  • 201700Z 09007KT 060V120 9999 FEW025 22/17 Q1013 NOSIG
  • 201630Z 11007KT 080V140 9999 FEW025 22/18 Q1013 NOSIG
  • 201600Z 11008KT 070V150 9999 FEW025 22/18 Q1013 NOSIG

TAF TAF LEBL
Valido dal 20 a 18 ore il 21 a 18 ore UTC


201700Z 2018/2118 07010KT 9999 FEW015 TX26/2112Z TN19/2106Z
BECMG 2021/2023 VRB03KT
BECMG 2108/2110 20010KT
Nessun NOTAM noto per questo aeroporto.
1 SIGMET conosciuto per la FIR Barcelona (LECB) :
 
Temporali affogati
LECB SIGMET 4 VALID 201800/202000 LEVA
LECB BARCELONA FIR/UIR EMBD TS FCST W OF LINE N4024 W00016 - N4229 E00249 TOP FL430 MOV NNE 20KT NC=



MetMap, La meteo Aeronautica in un colpo d'occhio ! - Copyright ORBIFLY Dicembre 2007 - Disclaimer

ORBIFLY MET'MAP TEAM :

Programmazione e sviluppo : Alexandra Zaïnal
Concezione e sviluppo : Baudouin d'Aumeries
Co-Programmazione e sviluppo : Marc-Olivier Méhu
Supporto tecnico e logistico : Manuel Goepfert
Aiuto per la traduzione : Arnaldo La Scala

Contatto : metmap@orbifly.com




FONTI E CREDITI :

   NOAA